Alpine, Tennessee
Current Conditions -  °F | °C
As of 11:15 AM on Thursday 18 Dec 2014 (Local Time) from KSRB Reporting Station
Broken Clouds Broken Clouds  
Wind Chill: 37°   Ceiling: 900
Heat Index: 37°   Visibility: 10mi
Dew Point: 34°   Wind: 3mph
Humidity: 87%   Direction: 10°N
Pressure: 30.19"   Gusts: NA
Location:  36.39°N, 85.22°W
Report Text: KSRB 181715Z AUTO 01003KT 10SM BKN009 BKN044 03/01 A3019 RMK
Loading
Personal Weather Stations






























Interactive Weather Map New forecast layout! Learn more

10-Day Weather Forecast

Advertisements
Track Severe Weather on mobile